Home > Products > Valid Products > TAF

000
FTUS46 KEKA 251807 AAA
TAFUKI
TAF AMD
KUKI 251807Z 2518/2618 31005KT P6SM SCT017
     FM251900 32009KT P6SM SCT035
     FM252100 31011G18KT P6SM SCT100
     FM260300 35008KT P6SM SKC
     FM260900 00000KT P6SM BKN015
     FM261600 VRB03KT P6SM SCT015=



000
FTUS46 KEKA 251325 AAA
TAFACV
TAF AMD
KACV 251325Z 2513/2612 00000KT P6SM SCT025
      TEMPO 2514/2518 BKN025
     FM251900 32009KT P6SM BKN025
     FM252300 33013G20KT P6SM SCT025
     FM260300 34009KT P6SM BKN025
     FM260700 35005KT P6SM SCT007 OVC015=



000
FTUS46 KEKA 250841 AAA
TAFUKI
TAF AMD
KUKI 250841Z 2508/2606 VRB03KT P6SM BKN015
     FM251700 32010KT P6SM SCT015=



000
FTUS46 KEKA 250537
TAFACV
TAF
KACV 250537Z 2506/2606 12003KT P6SM SCT007 OVC015
     FM251900 32014KT P6SM SCT015
     FM252100 32014G20KT P6SM SKC=



000
FTUS46 KEKA 250537
TAFUKI
TAF
KUKI 250537Z 2506/2606 32005KT P6SM SCT050
     FM251000 VRB03KT P6SM BKN015
     FM251700 32010KT P6SM SCT015=



000
FTUS46 KEKA 250206 AAA
TAFACV
TAF AMD
KACV 250206Z 2502/2524 31010KT P6SM SCT025
     FM250400 28004KT P6SM SCT007 BKN025
     FM250700 12003KT P6SM SCT007 OVC015
     FM251900 32014KT P6SM SCT015=



000
FTUS46 KEKA 242159 CCA
TAFUKI
TAF COR
KUKI 242159Z 2422/2518 32009KT P6SM VCTS SCT040CB BKN090
      TEMPO 2422/2424 30012G18KT P6SM -SHRA SCT040 BKN070
     FM250000 32005KT P6SM SCT050 BKN100
     FM250700 VRB03KT P6SM BKN015=



000
FTUS46 KEKA 242045 AAA
TAFACV
TAF AMD
KACV 242045Z 2421/2518 31009KT P6SM FEW015 SCT035 BKN250
      TEMPO 2422/2424 BKN015
     FM250000 32003KT P6SM -DZ SCT005 OVC015
     FM250700 12003KT P6SM OVC015=



000
FTUS46 KEKA 241905 AAA
TAFUKI
TAF AMD
KUKI 241905Z 2419/2518 33009KT P6SM SCT050 BKN090
     FM242000 34006KT P6SM SCT030 BKN050 BKN100
     FM242300 32005KT P6SM SCT050 BKN100
     FM250700 VRB03KT P6SM BKN015=



000
FTUS46 KEKA 241749 CCA
TAFCEC
TAF COR
KCEC 241749Z 2418/2518 30005KT P6SM SCT008 OVC010
      TEMPO 2418/2420 BKN008 OVC012
     FM242000 30008KT P6SM SCT008 BKN015 BKN025
      TEMPO 2420/2423 SCT015 SCT025 BKN035
     FM250200 28004KT P6SM BKN025 OVC035
     FM250400 18003KT P6SM OVC015=



000
FTUS46 KEKA 241501 AAA
TAFACV
TAF AMD
KACV 241501Z 2415/2512 33005KT 6SM BR BKN008 OVC013
      TEMPO 2416/2417 SCT008 BKN012 OVC025
     FM241700 33006KT P6SM FEW008 BKN015 OVC030
     FM241900 31008KT P6SM SCT015 SCT030 OVC050
     FM250200 32003KT P6SM OVC020
     FM250700 12003KT P6SM OVC015=



000
FTUS46 KEKA 241213 CCA
TAFACV
TAF COR
KACV 241213Z 2412/2512 34005KT P6SM OVC023
     FM241600 32005KT P6SM OVC020
     FM241900 31008KT P6SM OVC050
     FM250200 32003KT P6SM OVC020
     FM250700 12003KT P6SM OVC015=



000
FTUS46 KEKA 241120
TAFCEC
TAF
KCEC 241120Z 2412/2512 00000KT P6SM OVC008
     FM241700 27006KT P6SM OVC030
     FM242200 30005KT P6SM BKN050
     FM250200 28004KT P6SM OVC030
     FM250400 18003KT P6SM OVC015=



000
FTUS46 KEKA 241120
TAFUKI
TAF
KUKI 241120Z 2412/2512 00000KT P6SM OVC020
     FM241600 VRB03KT P6SM OVC030
     FM241900 34006KT P6SM SCT100
     FM242300 32005KT P6SM SCT100
     FM250700 00000KT P6SM BKN250=



000
FTUS46 KEKA 241120
TAFACV
TAF
KACV 241120Z 2412/2512 34003KT P6SM BKN016 OVC023
     FM241600 32005KT P6SM OVC020
     FM241900 31008KT P6SM OVC050
     FM250200 32003KT P6SM OVC020
     FM250700 12003KT P6SM OVC015=



000
FTUS46 KEKA 241100 CCC
TAFCEC
TAF COR
KCEC 241100Z 2406/2506 00000KT P6SM OVC008
     FM241700 27009KT P6SM OVC050
     FM250400 30004KT P6SM OVC009=



000
FTUS46 KEKA 240932 CCB
TAFCEC
TAF COR
KCEC 240932Z 2406/2506 00000KT P6SM OVC010
     FM241700 27009KT P6SM OVC050
     FM250400 30004KT P6SM OVC009=



000
FTUS46 KEKA 231514 AAA
TAFCEC
TAF AMD
KCEC 231514Z 2315/2412 10004KT P6SM SCT035 OVC040
     FM231600 17006KT P6SM SCT030 BKN060
     FM231800 23005KT P6SM BKN070
     FM232000 28004KT P6SM BKN050
     FM240200 00000KT P6SM OVC050=



000
FTUS46 KEKA 231306 CCA
TAFUKI
TAF COR
KUKI 231306Z 2312/2412 00000KT P6SM OVC100
     FM231700 26008KT P6SM SCT035=



000
FTUS46 KEKA 231305 CCA
TAFCEC
TAF COR
KCEC 231305Z 2312/2412 10004KT P6SM SCT035 OVC040
     FM231500 17006KT P6SM SCT030 OVC050
     FM231800 23005KT P6SM OVC025
     FM232000 28004KT P6SM BKN050
     FM240200 00000KT P6SM OVC050=



000
FTUS46 KEKA 231122
TAFCEC
TAF
KCEC 231122Z 2312/2412 10004KT P6SM SCT040 OVC050
     FM231500 17006KT P6SM SCT030 OVC050
     FM231800 23005KT P6SM OVC025
     FM232000 28004KT P6SM BKN050
     FM240200 00000KT P6SM OVC050=



000
FTUS46 KEKA 231122
TAFACV
TAF
KACV 231122Z 2312/2412 00000KT P6SM BKN060 OVC080
     FM231500 VRB04KT P6SM OVC050
     FM231800 29008KT P6SM OVC050
     FM240000 31003KT P6SM OVC050
     FM240800 00000KT P6SM OVC050=



000
FTUS46 KEKA 231122
TAFUKI
TAF
KUKI 231122Z 2312/2412 00000KT P6SM BKN080
     FM231700 26008KT P6SM SCT035=



000
FTUS46 KEKA 230912 AAA
TAFUKI
TAF AMD
KUKI 230912Z 2309/2406 00000KT P6SM BKN080
     FM231700 26008KT P6SM SCT035=



000
FTUS46 KEKA 230523
TAFCEC
TAF
KCEC 230523Z 2306/2406 16005KT P6SM SCT020 OVC040
     FM230700 15005KT P6SM BKN020 OVC035
     FM230900 16008KT P6SM -SHRA SCT008 OVC012
     FM231700 24007KT P6SM SCT015 OVC025=



000
FTUS46 KEKA 230523
TAFUKI
TAF
KUKI 230523Z 2306/2406 34005KT P6SM BKN250
     FM230900 00000KT P6SM BKN020
     FM231700 26008KT P6SM SCT035=



000
FTUS46 KEKA 230523
TAFACV
TAF
KACV 230523Z 2306/2406 16003KT P6SM SCT020 OVC035
     FM230800 15005KT P6SM BKN020 OVC035
     FM231000 00000KT 5SM BR VCSH SCT008 OVC015
     FM231700 24007KT P6SM SCT015 OVC025=



000
FTUS46 KEKA 222335
TAFUKI
TAF
KUKI 222335Z 2300/2324 23006KT P6SM OVC050
     FM230300 34005KT P6SM BKN250
     FM230900 00000KT P6SM BKN020
     FM231700 26008KT P6SM SCT035=



000
FTUS46 KEKA 222335
TAFCEC
TAF
KCEC 222335Z 2300/2324 17010KT P6SM SCT015 OVC050
     FM230300 16005KT P6SM SCT008 OVC015
     FM230900 16008KT P6SM -SHRA SCT008 OVC012
     FM231700 24007KT P6SM SCT015 OVC025=



000
FTUS46 KEKA 222335
TAFACV
TAF
KACV 222335Z 2300/2324 26010KT P6SM FEW100
     FM230300 31005KT P6SM SCT025 OVC050
     FM230500 16003KT P6SM OVC025
     FM231000 00000KT 5SM BR VCSH SCT008 OVC015
     FM231700 24007KT P6SM SCT015 OVC025=



    US Dept of Commerce
    National Oceanic and Atmospheric Administration
    National Weather Service
    1325 East West Highway
    Silver Spring, MD 20910
    Page Author: NWS Internet Services Team
Disclaimer
Information Quality
Credits
Glossary
Privacy Policy
Freedom of Information Act (FOIA)
About Us
Career Opportunities